SUD009 ULLI-UWGG
Flight info
| Callsign | SUD009 |
|---|---|
| Flight time | 1h 20m |
| Altitude | 37000 |
| Route | SUGIN1B SUGIN T873 NIRGI T73 DESUD P164 GAKLU N869 RANTO |
| Aircraft | A320/M-SDFGHILORVWY/S |
Departure
| Time | 2026-04-22 05:44 |
|---|---|
| Airport | Pulkovo Airport (ULLI) |
Arrival
| Time | 2026-04-22 07:04 |
|---|---|
| Airport | Nizhny Novgorod / Strigino International Airport (UWGG) |
| Time | Latitude | Longitude | Altitude | Speed | Heading |
|---|---|---|---|---|---|
| 2026-04-22 05:29 | 59.79674 | 30.26584 | 86 ft | 0 kts | 108° |
| 2026-04-22 05:38 | 59.79679 | 30.26552 | 88 ft | 4 kts | 108° |
| 2026-04-22 05:39 | 59.79688 | 30.26502 | 84 ft | 4 kts | 113° |
| 2026-04-22 05:39 | 59.79700 | 30.26456 | 86 ft | 4 kts | 133° |
| 2026-04-22 05:39 | 59.79708 | 30.26441 | 85 ft | 1 kts | 137° |
| 2026-04-22 05:41 | 59.79706 | 30.26443 | 85 ft | 1 kts | 146° |
| 2026-04-22 05:41 | 59.79685 | 30.26448 | 83 ft | 5 kts | 180° |
| 2026-04-22 05:41 | 59.79648 | 30.26431 | 87 ft | 6 kts | 196° |
| 2026-04-22 05:42 | 59.79598 | 30.26402 | 83 ft | 9 kts | 197° |
| 2026-04-22 05:42 | 59.79536 | 30.26364 | 86 ft | 9 kts | 197° |
| 2026-04-22 05:42 | 59.79481 | 30.26411 | 86 ft | 10 kts | 146° |
| 2026-04-22 05:42 | 59.79414 | 30.26399 | 86 ft | 9 kts | 196° |
| 2026-04-22 05:43 | 59.79345 | 30.26355 | 82 ft | 11 kts | 205° |
| 2026-04-22 05:43 | 59.79340 | 30.26221 | 85 ft | 11 kts | 285° |
| 2026-04-22 05:43 | 59.79403 | 30.25799 | 86 ft | 65 kts | 287° |
| 2026-04-22 05:43 | 59.79593 | 30.24531 | 84 ft | 124 kts | 287° |
| 2026-04-22 05:44 | 59.79868 | 30.22610 | 243 ft | 154 kts | 286° |
| 2026-04-22 05:44 | 59.80177 | 30.20574 | 939 ft | 152 kts | 286° |
| 2026-04-22 05:44 | 59.80466 | 30.18627 | 1812 ft | 143 kts | 286° |
| 2026-04-22 05:44 | 59.80753 | 30.16687 | 2407 ft | 153 kts | 287° |
| 2026-04-22 05:45 | 59.81071 | 30.14550 | 2892 ft | 168 kts | 286° |
| 2026-04-22 05:45 | 59.81415 | 30.12217 | 3334 ft | 185 kts | 287° |
| 2026-04-22 05:45 | 59.81798 | 30.09619 | 3829 ft | 205 kts | 287° |
| 2026-04-22 05:45 | 59.82215 | 30.06784 | 4454 ft | 223 kts | 287° |
| 2026-04-22 05:46 | 59.82665 | 30.03719 | 5090 ft | 239 kts | 287° |
| 2026-04-22 05:46 | 59.83105 | 30.00473 | 5982 ft | 247 kts | 280° |
| 2026-04-22 05:46 | 59.82858 | 29.97091 | 6906 ft | 258 kts | 247° |
| 2026-04-22 05:46 | 59.81598 | 29.94428 | 7719 ft | 278 kts | 214° |
| 2026-04-22 05:47 | 59.79753 | 29.93168 | 8493 ft | 294 kts | 189° |
| 2026-04-22 05:47 | 59.77694 | 29.93566 | 9305 ft | 305 kts | 161° |
| 2026-04-22 05:47 | 59.75891 | 29.95776 | 10066 ft | 309 kts | 131° |
| 2026-04-22 05:47 | 59.74760 | 29.99396 | 10641 ft | 315 kts | 103° |
| 2026-04-22 05:48 | 59.74310 | 30.03717 | 11095 ft | 328 kts | 96° |
| 2026-04-22 05:48 | 59.73906 | 30.08288 | 11482 ft | 345 kts | 96° |
| 2026-04-22 05:48 | 59.73476 | 30.13077 | 11847 ft | 362 kts | 96° |
| 2026-04-22 05:48 | 59.73015 | 30.18098 | 12188 ft | 378 kts | 97° |
| 2026-04-22 05:49 | 59.72527 | 30.23281 | 12738 ft | 386 kts | 97° |
| 2026-04-22 05:49 | 59.72025 | 30.28536 | 13456 ft | 391 kts | 97° |
| 2026-04-22 05:49 | 59.71512 | 30.33853 | 14115 ft | 394 kts | 97° |
| 2026-04-22 05:49 | 59.70993 | 30.39217 | 14731 ft | 398 kts | 97° |
| 2026-04-22 05:50 | 59.70471 | 30.44614 | 15345 ft | 401 kts | 97° |
| 2026-04-22 05:50 | 59.69941 | 30.50060 | 15965 ft | 405 kts | 97° |
| 2026-04-22 05:50 | 59.69585 | 30.53698 | 16385 ft | 407 kts | 97° |
| 2026-04-22 05:50 | 59.69043 | 30.59228 | 17028 ft | 411 kts | 96° |
| 2026-04-22 05:51 | 59.68308 | 30.66681 | 17910 ft | 415 kts | 96° |
| 2026-04-22 05:51 | 59.67939 | 30.70405 | 18318 ft | 418 kts | 96° |
| 2026-04-22 05:51 | 59.67377 | 30.76082 | 18907 ft | 421 kts | 96° |
| 2026-04-22 05:51 | 59.66812 | 30.81758 | 19512 ft | 423 kts | 96° |
| 2026-04-22 05:52 | 59.66238 | 30.87483 | 20120 ft | 425 kts | 96° |
| 2026-04-22 05:52 | 59.65658 | 30.93227 | 20689 ft | 427 kts | 96° |
| 2026-04-22 05:52 | 59.65077 | 30.98974 | 21220 ft | 429 kts | 96° |
| 2026-04-22 05:52 | 59.64486 | 31.04773 | 21722 ft | 431 kts | 96° |
| 2026-04-22 05:53 | 59.63890 | 31.10610 | 22226 ft | 434 kts | 96° |
| 2026-04-22 05:53 | 59.63289 | 31.16471 | 22688 ft | 436 kts | 96° |
| 2026-04-22 05:53 | 59.62684 | 31.22351 | 23148 ft | 438 kts | 96° |
| 2026-04-22 05:53 | 59.62076 | 31.28232 | 23565 ft | 440 kts | 96° |
| 2026-04-22 05:54 | 59.61456 | 31.34202 | 23917 ft | 443 kts | 96° |
| 2026-04-22 05:54 | 59.60832 | 31.40183 | 24259 ft | 446 kts | 96° |
| 2026-04-22 05:54 | 59.60202 | 31.46190 | 24592 ft | 449 kts | 96° |
| 2026-04-22 05:54 | 59.59562 | 31.52231 | 24922 ft | 451 kts | 96° |
| 2026-04-22 05:55 | 59.58915 | 31.58319 | 25256 ft | 454 kts | 96° |
| 2026-04-22 05:55 | 59.58264 | 31.64425 | 25580 ft | 457 kts | 97° |
| 2026-04-22 05:55 | 59.57603 | 31.70599 | 25901 ft | 460 kts | 97° |
| 2026-04-22 05:55 | 59.56939 | 31.76798 | 26226 ft | 463 kts | 97° |
| 2026-04-22 05:56 | 59.56269 | 31.83019 | 26522 ft | 466 kts | 97° |
| 2026-04-22 05:56 | 59.55589 | 31.89290 | 26821 ft | 469 kts | 97° |
| 2026-04-22 05:56 | 59.54902 | 31.95600 | 27111 ft | 472 kts | 97° |
| 2026-04-22 05:56 | 59.54116 | 32.01918 | 27397 ft | 478 kts | 103° |
| 2026-04-22 05:57 | 59.52880 | 32.08037 | 27690 ft | 486 kts | 112° |
| 2026-04-22 05:57 | 59.51171 | 32.13823 | 27967 ft | 493 kts | 121° |
| 2026-04-22 05:57 | 59.49017 | 32.19135 | 28229 ft | 499 kts | 130° |
| 2026-04-22 05:57 | 59.46558 | 32.23993 | 28464 ft | 502 kts | 133° |
| 2026-04-22 05:58 | 59.44074 | 32.28832 | 28698 ft | 504 kts | 133° |
| 2026-04-22 05:58 | 59.41585 | 32.33689 | 28915 ft | 505 kts | 133° |
| 2026-04-22 05:58 | 59.39090 | 32.38556 | 29122 ft | 507 kts | 133° |
| 2026-04-22 05:58 | 59.36584 | 32.43431 | 29316 ft | 508 kts | 133° |
| 2026-04-22 05:59 | 59.34068 | 32.48308 | 29496 ft | 509 kts | 133° |
| 2026-04-22 05:59 | 59.31538 | 32.53197 | 29667 ft | 511 kts | 133° |
| 2026-04-22 05:59 | 59.29006 | 32.58071 | 29826 ft | 512 kts | 133° |
| 2026-04-22 05:59 | 59.26461 | 32.62963 | 29965 ft | 513 kts | 133° |
| 2026-04-22 06:00 | 59.23928 | 32.67826 | 30086 ft | 513 kts | 133° |
| 2026-04-22 06:00 | 59.21371 | 32.72725 | 30220 ft | 513 kts | 133° |
| 2026-04-22 06:00 | 59.18818 | 32.77605 | 30344 ft | 513 kts | 133° |
| 2026-04-22 06:00 | 59.16268 | 32.82467 | 30483 ft | 513 kts | 133° |
| 2026-04-22 06:01 | 59.13709 | 32.87327 | 30639 ft | 513 kts | 133° |
| 2026-04-22 06:01 | 59.11155 | 32.92168 | 30816 ft | 512 kts | 133° |
| 2026-04-22 06:01 | 59.08609 | 32.96986 | 30971 ft | 511 kts | 133° |
| 2026-04-22 06:01 | 59.06057 | 33.01807 | 31141 ft | 511 kts | 133° |
| 2026-04-22 06:02 | 59.03512 | 33.06612 | 31309 ft | 510 kts | 133° |
| 2026-04-22 06:02 | 59.00972 | 33.11396 | 31500 ft | 509 kts | 133° |
| 2026-04-22 06:02 | 58.98426 | 33.16173 | 31683 ft | 508 kts | 133° |
| 2026-04-22 06:02 | 58.95891 | 33.20905 | 31877 ft | 507 kts | 133° |
| 2026-04-22 06:03 | 58.93351 | 33.25636 | 32076 ft | 505 kts | 133° |
| 2026-04-22 06:03 | 58.90823 | 33.30342 | 32357 ft | 501 kts | 133° |
| 2026-04-22 06:03 | 58.88353 | 33.34935 | 33261 ft | 485 kts | 133° |
| 2026-04-22 06:03 | 58.85948 | 33.39400 | 34023 ft | 475 kts | 133° |
| 2026-04-22 06:04 | 58.83575 | 33.43803 | 34503 ft | 471 kts | 133° |
| 2026-04-22 06:04 | 58.81220 | 33.48170 | 34879 ft | 469 kts | 133° |
| 2026-04-22 06:04 | 58.78901 | 33.52470 | 35227 ft | 468 kts | 133° |
| 2026-04-22 06:04 | 58.76551 | 33.56812 | 35561 ft | 468 kts | 133° |
| 2026-04-22 06:05 | 58.74198 | 33.61141 | 35889 ft | 467 kts | 133° |
| 2026-04-22 06:05 | 58.71845 | 33.65455 | 36200 ft | 467 kts | 133° |
| 2026-04-22 06:05 | 58.69493 | 33.69750 | 36501 ft | 466 kts | 134° |
| 2026-04-22 06:05 | 58.67142 | 33.74035 | 36782 ft | 466 kts | 134° |
| 2026-04-22 06:06 | 58.62399 | 33.82674 | 36873 ft | 475 kts | 134° |
| 2026-04-22 06:06 | 58.57589 | 33.91431 | 36875 ft | 477 kts | 134° |
| 2026-04-22 06:07 | 58.52769 | 34.00161 | 36875 ft | 477 kts | 134° |
| 2026-04-22 06:07 | 58.47930 | 34.08859 | 36877 ft | 477 kts | 134° |
| 2026-04-22 06:08 | 58.43100 | 34.17532 | 36878 ft | 477 kts | 134° |
| 2026-04-22 06:08 | 58.38259 | 34.26188 | 36883 ft | 477 kts | 134° |
| 2026-04-22 06:09 | 58.33404 | 34.34824 | 36889 ft | 477 kts | 134° |
| 2026-04-22 06:09 | 58.28549 | 34.43424 | 36891 ft | 477 kts | 134° |
| 2026-04-22 06:10 | 58.23756 | 34.52089 | 36893 ft | 474 kts | 128° |
| 2026-04-22 06:10 | 58.20150 | 34.62370 | 36881 ft | 465 kts | 110° |
| 2026-04-22 06:11 | 58.18232 | 34.73959 | 36872 ft | 460 kts | 100° |
| 2026-04-22 06:11 | 58.16665 | 34.85720 | 36877 ft | 460 kts | 101° |
| 2026-04-22 06:12 | 58.15061 | 34.97452 | 36885 ft | 461 kts | 101° |
| 2026-04-22 06:12 | 58.13448 | 35.09190 | 36891 ft | 460 kts | 101° |
| 2026-04-22 06:13 | 58.11837 | 35.20909 | 36893 ft | 460 kts | 101° |
| 2026-04-22 06:13 | 58.10220 | 35.32626 | 36887 ft | 460 kts | 101° |
| 2026-04-22 06:14 | 58.08580 | 35.44319 | 36884 ft | 460 kts | 101° |
| 2026-04-22 06:14 | 58.06943 | 35.55916 | 36879 ft | 460 kts | 101° |
| 2026-04-22 06:15 | 58.05280 | 35.67660 | 36876 ft | 460 kts | 101° |
| 2026-04-22 06:15 | 58.03631 | 35.79252 | 36877 ft | 460 kts | 102° |
| 2026-04-22 06:16 | 58.01954 | 35.90923 | 36878 ft | 461 kts | 102° |
| 2026-04-22 06:16 | 58.00268 | 36.02575 | 36876 ft | 461 kts | 102° |
| 2026-04-22 06:17 | 57.98563 | 36.14223 | 36877 ft | 461 kts | 102° |
| 2026-04-22 06:17 | 57.96856 | 36.25859 | 36874 ft | 461 kts | 102° |
| 2026-04-22 06:18 | 57.95138 | 36.37472 | 36871 ft | 461 kts | 102° |
| 2026-04-22 06:18 | 57.93404 | 36.49087 | 36867 ft | 461 kts | 102° |
| 2026-04-22 06:19 | 57.91659 | 36.60690 | 36857 ft | 461 kts | 103° |
| 2026-04-22 06:19 | 57.89907 | 36.72281 | 36848 ft | 461 kts | 103° |
| 2026-04-22 06:20 | 57.88144 | 36.83880 | 36854 ft | 462 kts | 103° |
| 2026-04-22 06:20 | 57.86367 | 36.95480 | 36844 ft | 462 kts | 103° |
| 2026-04-22 06:21 | 57.84574 | 37.07072 | 36855 ft | 462 kts | 103° |
| 2026-04-22 06:21 | 57.82769 | 37.18659 | 36840 ft | 462 kts | 103° |
| 2026-04-22 06:22 | 57.80960 | 37.30228 | 36847 ft | 463 kts | 103° |
| 2026-04-22 06:22 | 57.79143 | 37.41796 | 36849 ft | 463 kts | 103° |
| 2026-04-22 06:23 | 57.77315 | 37.53352 | 36840 ft | 462 kts | 103° |
| 2026-04-22 06:23 | 57.75477 | 37.64888 | 36841 ft | 462 kts | 103° |
| 2026-04-22 06:24 | 57.72679 | 37.82179 | 36835 ft | 462 kts | 104° |
| 2026-04-22 06:25 | 57.70810 | 37.93677 | 36829 ft | 462 kts | 104° |
| 2026-04-22 06:25 | 57.68931 | 38.05188 | 36831 ft | 463 kts | 104° |
| 2026-04-22 06:26 | 57.67047 | 38.16673 | 36829 ft | 463 kts | 104° |
| 2026-04-22 06:26 | 57.65145 | 38.28154 | 36831 ft | 463 kts | 104° |
| 2026-04-22 06:27 | 57.63225 | 38.39613 | 36823 ft | 463 kts | 104° |
| 2026-04-22 06:27 | 57.61292 | 38.51091 | 36827 ft | 463 kts | 104° |
| 2026-04-22 06:28 | 57.59370 | 38.62534 | 36827 ft | 463 kts | 104° |
| 2026-04-22 06:28 | 57.57429 | 38.73997 | 36826 ft | 463 kts | 104° |
| 2026-04-22 06:29 | 57.55477 | 38.85424 | 36817 ft | 463 kts | 105° |
| 2026-04-22 06:29 | 57.53505 | 38.96852 | 36814 ft | 463 kts | 105° |
| 2026-04-22 06:30 | 57.51519 | 39.08272 | 36815 ft | 464 kts | 105° |
| 2026-04-22 06:30 | 57.49529 | 39.19688 | 36818 ft | 464 kts | 105° |
| 2026-04-22 06:31 | 57.47453 | 39.30966 | 36823 ft | 465 kts | 108° |
| 2026-04-22 06:31 | 57.45075 | 39.42152 | 36816 ft | 466 kts | 110° |
| 2026-04-22 06:32 | 57.42616 | 39.53286 | 36819 ft | 466 kts | 109° |
| 2026-04-22 06:32 | 57.40201 | 39.64449 | 36822 ft | 466 kts | 109° |
| 2026-04-22 06:32 | 57.39008 | 39.70010 | 36628 ft | 463 kts | 109° |
| 2026-04-22 06:33 | 57.37821 | 39.75553 | 36224 ft | 463 kts | 109° |
| 2026-04-22 06:33 | 57.36637 | 39.81087 | 35826 ft | 462 kts | 108° |
| 2026-04-22 06:33 | 57.35453 | 39.86617 | 35435 ft | 461 kts | 108° |
| 2026-04-22 06:33 | 57.34269 | 39.92123 | 35056 ft | 460 kts | 108° |
| 2026-04-22 06:34 | 57.33079 | 39.97617 | 34678 ft | 459 kts | 108° |
| 2026-04-22 06:34 | 57.31882 | 40.03091 | 34308 ft | 458 kts | 108° |
| 2026-04-22 06:34 | 57.30680 | 40.08551 | 33938 ft | 458 kts | 108° |
| 2026-04-22 06:34 | 57.29481 | 40.13995 | 33527 ft | 457 kts | 108° |
| 2026-04-22 06:35 | 57.28286 | 40.19429 | 33087 ft | 457 kts | 108° |
| 2026-04-22 06:35 | 57.27087 | 40.24877 | 32659 ft | 457 kts | 107° |
| 2026-04-22 06:35 | 57.25891 | 40.30295 | 32234 ft | 456 kts | 107° |
| 2026-04-22 06:35 | 57.24689 | 40.35714 | 31814 ft | 456 kts | 107° |
| 2026-04-22 06:36 | 57.23484 | 40.41139 | 31404 ft | 456 kts | 107° |
| 2026-04-22 06:36 | 57.22689 | 40.44722 | 31068 ft | 455 kts | 107° |
| 2026-04-22 06:36 | 57.21090 | 40.51916 | 30371 ft | 453 kts | 106° |
| 2026-04-22 06:36 | 57.20276 | 40.55564 | 30019 ft | 453 kts | 106° |
| 2026-04-22 06:37 | 57.19081 | 40.60897 | 29440 ft | 447 kts | 106° |
| 2026-04-22 06:37 | 57.17907 | 40.66088 | 28854 ft | 443 kts | 106° |
| 2026-04-22 06:37 | 57.16725 | 40.71304 | 28346 ft | 440 kts | 106° |
| 2026-04-22 06:37 | 57.15549 | 40.76492 | 27936 ft | 437 kts | 107° |
| 2026-04-22 06:38 | 57.14366 | 40.81706 | 27516 ft | 435 kts | 107° |
| 2026-04-22 06:38 | 57.13221 | 40.86757 | 27123 ft | 432 kts | 107° |
| 2026-04-22 06:38 | 57.12064 | 40.91854 | 26731 ft | 430 kts | 107° |
| 2026-04-22 06:38 | 57.10910 | 40.96926 | 26333 ft | 428 kts | 107° |
| 2026-04-22 06:39 | 57.09764 | 41.01964 | 25948 ft | 426 kts | 108° |
| 2026-04-22 06:39 | 57.08617 | 41.06981 | 25570 ft | 424 kts | 108° |
| 2026-04-22 06:39 | 57.07456 | 41.12016 | 25192 ft | 423 kts | 108° |
| 2026-04-22 06:39 | 57.06306 | 41.16988 | 24817 ft | 421 kts | 108° |
| 2026-04-22 06:40 | 57.05165 | 41.21933 | 24455 ft | 419 kts | 109° |
| 2026-04-22 06:40 | 57.04030 | 41.26845 | 24088 ft | 417 kts | 109° |
| 2026-04-22 06:40 | 57.02898 | 41.31732 | 23732 ft | 415 kts | 109° |
| 2026-04-22 06:40 | 57.01778 | 41.36549 | 23378 ft | 414 kts | 109° |
| 2026-04-22 06:41 | 57.00652 | 41.41383 | 22961 ft | 412 kts | 110° |
| 2026-04-22 06:41 | 56.99669 | 41.45587 | 22596 ft | 410 kts | 110° |
| 2026-04-22 06:41 | 56.98520 | 41.50496 | 22152 ft | 408 kts | 110° |
| 2026-04-22 06:41 | 56.97404 | 41.55269 | 21740 ft | 406 kts | 110° |
| 2026-04-22 06:42 | 56.96288 | 41.60013 | 21347 ft | 404 kts | 110° |
| 2026-04-22 06:42 | 56.95184 | 41.64700 | 20962 ft | 396 kts | 111° |
| 2026-04-22 06:42 | 56.94105 | 41.69280 | 20608 ft | 389 kts | 111° |
| 2026-04-22 06:42 | 56.93039 | 41.73792 | 20268 ft | 381 kts | 111° |
| 2026-04-22 06:43 | 56.91995 | 41.78198 | 19928 ft | 373 kts | 111° |
| 2026-04-22 06:43 | 56.90966 | 41.82538 | 19603 ft | 371 kts | 111° |
| 2026-04-22 06:43 | 56.89941 | 41.86862 | 19275 ft | 370 kts | 111° |
| 2026-04-22 06:43 | 56.88916 | 41.91165 | 18950 ft | 368 kts | 112° |
| 2026-04-22 06:44 | 56.87891 | 41.95457 | 18632 ft | 367 kts | 112° |
| 2026-04-22 06:44 | 56.86867 | 41.99726 | 18313 ft | 366 kts | 112° |
| 2026-04-22 06:44 | 56.85848 | 42.03976 | 17984 ft | 364 kts | 112° |
| 2026-04-22 06:44 | 56.84834 | 42.08198 | 17624 ft | 362 kts | 112° |
| 2026-04-22 06:45 | 56.83821 | 42.12408 | 17265 ft | 362 kts | 112° |
| 2026-04-22 06:45 | 56.82809 | 42.16602 | 16908 ft | 358 kts | 112° |
| 2026-04-22 06:45 | 56.81817 | 42.20700 | 16583 ft | 349 kts | 112° |
| 2026-04-22 06:45 | 56.80844 | 42.24721 | 16254 ft | 342 kts | 112° |
| 2026-04-22 06:46 | 56.79896 | 42.28637 | 15949 ft | 335 kts | 112° |
| 2026-04-22 06:46 | 56.78961 | 42.32489 | 15627 ft | 329 kts | 112° |
| 2026-04-22 06:46 | 56.78034 | 42.36297 | 15318 ft | 328 kts | 112° |
| 2026-04-22 06:46 | 56.77107 | 42.40099 | 15005 ft | 327 kts | 112° |
| 2026-04-22 06:47 | 56.76186 | 42.43873 | 14703 ft | 326 kts | 112° |
| 2026-04-22 06:47 | 56.75262 | 42.47641 | 14404 ft | 325 kts | 112° |
| 2026-04-22 06:47 | 56.74343 | 42.51387 | 14100 ft | 323 kts | 112° |
| 2026-04-22 06:47 | 56.73425 | 42.55121 | 13808 ft | 322 kts | 112° |
| 2026-04-22 06:48 | 56.72524 | 42.58783 | 13503 ft | 321 kts | 112° |
| 2026-04-22 06:48 | 56.71600 | 42.62527 | 13171 ft | 320 kts | 112° |
| 2026-04-22 06:48 | 56.70691 | 42.66205 | 12834 ft | 318 kts | 112° |
| 2026-04-22 06:48 | 56.69785 | 42.69869 | 12514 ft | 316 kts | 112° |
| 2026-04-22 06:49 | 56.68897 | 42.73458 | 12193 ft | 315 kts | 112° |
| 2026-04-22 06:49 | 56.67988 | 42.77122 | 11860 ft | 312 kts | 112° |
| 2026-04-22 06:49 | 56.67112 | 42.80656 | 11560 ft | 309 kts | 112° |
| 2026-04-22 06:49 | 56.66234 | 42.84189 | 11264 ft | 303 kts | 112° |
| 2026-04-22 06:50 | 56.65374 | 42.87653 | 10956 ft | 299 kts | 112° |
| 2026-04-22 06:50 | 56.64521 | 42.91079 | 10658 ft | 295 kts | 112° |
| 2026-04-22 06:50 | 56.63679 | 42.94450 | 10377 ft | 291 kts | 112° |
| 2026-04-22 06:50 | 56.62848 | 42.97764 | 10086 ft | 286 kts | 112° |
| 2026-04-22 06:51 | 56.62029 | 43.01032 | 9827 ft | 283 kts | 112° |
| 2026-04-22 06:51 | 56.61218 | 43.04265 | 9541 ft | 279 kts | 112° |
| 2026-04-22 06:51 | 56.60425 | 43.07418 | 9241 ft | 268 kts | 112° |
| 2026-04-22 06:51 | 56.59667 | 43.10416 | 8957 ft | 254 kts | 112° |
| 2026-04-22 06:52 | 56.58946 | 43.13256 | 8735 ft | 244 kts | 112° |
| 2026-04-22 06:52 | 56.58245 | 43.16019 | 8488 ft | 239 kts | 112° |
| 2026-04-22 06:52 | 56.57559 | 43.18733 | 8249 ft | 234 kts | 112° |
| 2026-04-22 06:52 | 56.56890 | 43.21387 | 8015 ft | 229 kts | 112° |
| 2026-04-22 06:53 | 56.56229 | 43.24010 | 7777 ft | 228 kts | 112° |
| 2026-04-22 06:53 | 56.55570 | 43.26617 | 7539 ft | 227 kts | 112° |
| 2026-04-22 06:53 | 56.54914 | 43.29210 | 7303 ft | 228 kts | 112° |
| 2026-04-22 06:53 | 56.54255 | 43.31804 | 7075 ft | 225 kts | 112° |
| 2026-04-22 06:54 | 56.53602 | 43.34365 | 6770 ft | 221 kts | 112° |
| 2026-04-22 06:54 | 56.52967 | 43.36853 | 6476 ft | 213 kts | 112° |
| 2026-04-22 06:54 | 56.52354 | 43.39249 | 6187 ft | 207 kts | 113° |
| 2026-04-22 06:54 | 56.51757 | 43.41585 | 5863 ft | 202 kts | 111° |
| 2026-04-22 06:55 | 56.51171 | 43.43887 | 5532 ft | 199 kts | 112° |
| 2026-04-22 06:55 | 56.50589 | 43.46163 | 5224 ft | 201 kts | 113° |
| 2026-04-22 06:55 | 56.50001 | 43.48458 | 4965 ft | 199 kts | 113° |
| 2026-04-22 06:55 | 56.49423 | 43.50703 | 4837 ft | 196 kts | 113° |
| 2026-04-22 06:56 | 56.48849 | 43.52939 | 4714 ft | 197 kts | 112° |
| 2026-04-22 06:56 | 56.48273 | 43.55177 | 4581 ft | 196 kts | 113° |
| 2026-04-22 06:56 | 56.47698 | 43.57408 | 4446 ft | 195 kts | 113° |
| 2026-04-22 06:56 | 56.47124 | 43.59631 | 4307 ft | 195 kts | 113° |
| 2026-04-22 06:57 | 56.46552 | 43.61851 | 4218 ft | 195 kts | 113° |
| 2026-04-22 06:57 | 56.45989 | 43.64036 | 4084 ft | 188 kts | 113° |
| 2026-04-22 06:57 | 56.45448 | 43.66125 | 3969 ft | 179 kts | 113° |
| 2026-04-22 06:57 | 56.44932 | 43.68126 | 3857 ft | 172 kts | 113° |
| 2026-04-22 06:58 | 56.44429 | 43.70071 | 3745 ft | 170 kts | 112° |
| 2026-04-22 06:58 | 56.43932 | 43.71982 | 3647 ft | 171 kts | 112° |
| 2026-04-22 06:58 | 56.43431 | 43.73910 | 3542 ft | 170 kts | 113° |
| 2026-04-22 06:58 | 56.42932 | 43.75834 | 3437 ft | 169 kts | 112° |
| 2026-04-22 06:59 | 56.42432 | 43.77765 | 3328 ft | 169 kts | 113° |
| 2026-04-22 06:59 | 56.41930 | 43.79701 | 3236 ft | 169 kts | 112° |
| 2026-04-22 06:59 | 56.41421 | 43.81626 | 3138 ft | 171 kts | 117° |
| 2026-04-22 06:59 | 56.40643 | 43.83255 | 3049 ft | 175 kts | 142° |
| 2026-04-22 07:00 | 56.39575 | 43.84184 | 3003 ft | 167 kts | 167° |
| 2026-04-22 07:00 | 56.38430 | 43.84261 | 2991 ft | 165 kts | 193° |
| 2026-04-22 07:00 | 56.37307 | 43.83845 | 2932 ft | 161 kts | 193° |
| 2026-04-22 07:00 | 56.36220 | 43.83444 | 2786 ft | 162 kts | 194° |
| 2026-04-22 07:01 | 56.35116 | 43.83038 | 2577 ft | 159 kts | 193° |
| 2026-04-22 07:01 | 56.34060 | 43.82652 | 2379 ft | 150 kts | 193° |
| 2026-04-22 07:01 | 56.33061 | 43.82284 | 2154 ft | 144 kts | 194° |
| 2026-04-22 07:01 | 56.32100 | 43.81929 | 1968 ft | 142 kts | 193° |
| 2026-04-22 07:02 | 56.31149 | 43.81579 | 1766 ft | 139 kts | 194° |
| 2026-04-22 07:02 | 56.30199 | 43.81230 | 1548 ft | 139 kts | 193° |
| 2026-04-22 07:02 | 56.29265 | 43.80904 | 1381 ft | 136 kts | 192° |
| 2026-04-22 07:02 | 56.28341 | 43.80602 | 1121 ft | 133 kts | 193° |
| 2026-04-22 07:03 | 56.27446 | 43.80255 | 921 ft | 131 kts | 193° |
| 2026-04-22 07:03 | 56.26558 | 43.79908 | 761 ft | 131 kts | 192° |
| 2026-04-22 07:03 | 56.25670 | 43.79581 | 604 ft | 131 kts | 192° |
| 2026-04-22 07:03 | 56.24780 | 43.79256 | 431 ft | 130 kts | 191° |
| 2026-04-22 07:04 | 56.23896 | 43.78926 | 282 ft | 128 kts | 191° |
| 2026-04-22 07:04 | 56.23099 | 43.78625 | 270 ft | 104 kts | 192° |
| 2026-04-22 07:04 | 56.22402 | 43.78367 | 266 ft | 71 kts | 191° |
| 2026-04-22 07:04 | 56.22137 | 43.78270 | 267 ft | 22 kts | 190° |
| 2026-04-22 07:05 | 56.22027 | 43.78233 | 268 ft | 14 kts | 191° |
| 2026-04-22 07:05 | 56.21943 | 43.78298 | 267 ft | 16 kts | 102° |
| 2026-04-22 07:05 | 56.21925 | 43.78464 | 267 ft | 12 kts | 101° |
| 2026-04-22 07:05 | 56.21913 | 43.78601 | 266 ft | 8 kts | 83° |
| 2026-04-22 07:06 | 56.21967 | 43.78654 | 266 ft | 11 kts | 6° |
| 2026-04-22 07:06 | 56.22054 | 43.78682 | 266 ft | 15 kts | 11° |
| 2026-04-22 07:06 | 56.22169 | 43.78724 | 266 ft | 19 kts | 12° |
| 2026-04-22 07:06 | 56.22237 | 43.78773 | 266 ft | 11 kts | 59° |
| 2026-04-22 07:07 | 56.22235 | 43.78855 | 266 ft | 1 kts | 102° |
| 2026-04-22 07:07 | 56.22235 | 43.78859 | 266 ft | 0 kts | 102° |